• Join FlightAware (Why Join?)
  • Login
  • US Flag GB Flag 
03:24 EDT


 

Airport Tracker/Info


-or-


 

Live Flight TrackerFlight Track Log ✈ N789EX ✈ 30-Oct-2013 ✈ KBFI - KBFI

Flight Track Log - Related Links

Times and Time Zones

All times are in EDT time to prevent confusion due to time zone crossing. See the N789EX flight status page for this flight to view local times or setup timezone preferences in your user account.

Time Position Orientation Groundspeed Altitude Reporting Facility
EDT Latitude Longitude Course Direction KTS MPH feet Rate Location/Type
12:16 47.4690 -122.2450 142° Southeast 238 274 3,700  Level FlightAware
12:17 47.4790 -122.1530 81° East 260 299 7,500 3,780 Climbing FlightAware
12:17 47.5040 -122.0930 58° Northeast 269 310 9,900 3,840 Climbing FlightAware
12:18 47.5240 -122.0810 22° Northeast 253 291 11,200 2,340 Climbing FlightAware
12:18 47.5850 -122.1000 348° North 261 300 12,800 1,020 Climbing FlightAware
12:19 47.6290 -122.1150 347° North 259 298 12,800 120 Level FlightAware
12:20 47.6710 -122.1370 341° North 263 303 13,000 540 Climbing FlightAware
12:20 47.7030 -122.1570 337° Northwest 285 328 13,400 1,320 Climbing FlightAware
12:21 47.7580 -122.1890 339° North 336 387 14,600 2,160 Climbing FlightAware
12:21 47.8030 -122.2160 338° Northwest 353 406 16,000 3,480 Climbing FlightAware
12:22 47.8640 -122.2530 338° Northwest 353 406 18,500 3,540 Climbing FlightAware
12:23 47.9230 -122.2800 343° North 366 421 20,500 2,820 Climbing FlightAware
12:23 48.0040 -122.2310 22° Northeast 393 452 22,700 2,220 Climbing FlightAware
12:25 48.1030 -122.1190 37° Northeast 432 497 25,000 1,500 Climbing FlightAware
12:25 48.1140 -122.0520 76° East 442 509 25,000  Level FlightAware
12:26 48.1080 -121.9150 94° East 445 512 25,000 60 Level FlightAware
12:26 48.1040 -121.8080 93° East 437 503 25,100 -120 Climbing FlightAware
12:27 48.0950 -121.6260 94° East 443 510 24,900 -60 Descending FlightAware
12:28 48.0870 -121.4240 93° East 443 510 25,000  Climbing FlightAware
12:29 48.0810 -121.3040 94° East 441 507 25,000 -120 Level FlightAware
12:30 48.0750 -121.1880 94° East 444 511 24,900 -120 Descending FlightAware
12:30 48.0700 -121.0810 94° East 431 496 24,900 -120 Level FlightAware
12:31 48.0650 -120.9770 94° East 434 499 24,800 -120 Descending FlightAware
12:32 48.0590 -120.8650 95° East 437 503 24,800 60 Level FlightAware
12:32 48.0550 -120.7760 94° East 440 506 24,900 60 Climbing FlightAware
12:33 48.0490 -120.6460 94° East 437 503 24,900 60 Level FlightAware
12:34 48.0410 -120.4960 95° East 435 501 25,000 60 Climbing FlightAware
12:34 48.0340 -120.3900 96° East 436 502 25,000 -120 Level FlightAware
12:35 48.0280 -120.2940 95° East 439 505 24,900 -120 Descending FlightAware
12:35 48.0210 -120.1730 95° East 437 503 24,900 60 Level FlightAware
12:36 48.0160 -120.0750 94° East 443 510 25,000 120 Climbing FlightAware
12:36 48.0100 -119.9650 95° East 441 507 25,100  Climbing FlightAware
12:37 48.0020 -119.8310 95° East 440 506 25,000 -120 Descending FlightAware
12:38 47.9980 -119.7610 95° East 442 509 25,000  Level FlightAware
12:39 47.9830 -119.5380 96° East 441 507 25,000  Level FlightAware
12:40 47.9760 -119.4450 96° East 441 507 25,000  Level FlightAware
12:40 47.9680 -119.3210 95° East 441 507 25,000  Level FlightAware
12:41 47.9620 -119.2340 96° East 441 507 25,000  Level FlightAware
12:42 47.9530 -119.1150 96° East 441 507 25,000  Level FlightAware
12:42 47.9470 -119.0220 95° East 441 507 25,000  Level FlightAware
12:42 47.9440 -118.9920 98° East 441 507 25,000 -120 Level FlightAware
12:43 47.9103 -118.7497 98° East 437 503 24,900 -60 Descending Seattle Center
12:44 47.8969 -118.5658 96° East 447 514 24,900  Level Seattle Center
12:45 47.8875 -118.3697 94° East 471 542 25,000  Climbing Seattle Center
12:46 47.8747 -118.1753 96° East 473 544 24,900  Descending Seattle Center
12:47 47.8592 -117.9831 97° East 469 540 25,100  Climbing Seattle Center
12:48 47.8400 -117.7889 98° East 474 545 24,900 -60 Descending Seattle Center
12:49 47.8167 -117.5947 100° East 476 548 25,000  Climbing Seattle Center
12:50 47.7897 -117.3644 100° East 471 542 24,900  Descending Seattle Center
12:51 47.7767 -117.1731 96° East 460 529 25,000 60 Climbing Seattle Center
12:53 47.7708 -116.9797 92° East 459 528 25,100  Climbing Seattle Center
12:54 47.7586 -116.7867 95° East 462 532 25,100 -240 Level Seattle Center
12:55 47.7428 -116.5964 97° East 462 532 24,700 -180 Descending Seattle Center
12:56 47.7222 -116.4064 99° East 464 534 24,800 120 Climbing Seattle Center
12:57 47.7225 -116.2228 90° East 475 547 25,000 60 Climbing Seattle Center
12:58 47.8031 -116.2853 332° Northwest 459 528 25,000 120 Level Seattle Center
12:59 47.7892 -116.4661 264° West 447 514 25,300 360 Climbing Seattle Center
13:00 47.7797 -116.6453 266° West 439 505 25,800 -120 Climbing Seattle Center
13:01 47.7756 -116.8283 268° West 444 511 25,100 -420 Descending Seattle Center
13:02 47.7892 -117.0144 276° West 459 528 25,000  Descending Seattle Center
13:03 47.8081 -117.2450 277° West 474 545 25,200  Climbing Seattle Center
13:04 47.8250 -117.4342 278° West 471 542 25,100 -60 Descending Seattle Center
13:05 47.8447 -117.6203 279° West 463 533 25,100  Level Seattle Center
13:06 47.8667 -117.8058 280° West 459 528 25,100  Level Seattle Center
13:07 47.8911 -117.9919 281° West 460 529 25,100 -120 Level Seattle Center
13:08 47.9200 -118.1767 283° West 460 529 24,900 -120 Descending Seattle Center
13:09 47.9506 -118.3606 284° West 459 528 24,900  Level Seattle Center
13:10 47.9567 -118.5508 273° West 471 542 24,900  Level Seattle Center
13:16 47.8950 -119.6030 273° West 462 532 25,000  Climbing FlightAware
13:16 47.8290 -119.6240 192° South 467 537 25,000  Level FlightAware
13:17 47.7440 -119.6450 189° South 469 540 25,000  Level FlightAware
13:17 47.6830 -119.6600 189° South 468 539 25,000  Level FlightAware
13:18 47.5900 -119.6830 189° South 467 537 25,000  Level FlightAware
13:18 47.5200 -119.7000 189° South 468 539 25,000  Level FlightAware
13:19 47.3920 -119.7320 190° South 472 543 25,000  Level FlightAware
13:20 47.3100 -119.7520 189° South 485 558 25,000  Level FlightAware
13:21 47.2200 -119.7730 189° South 488 562 25,000  Level FlightAware
13:21 47.1460 -119.7910 189° South 490 564 25,000  Level FlightAware
13:22 47.0020 -119.8220 188° South 523 602 25,000 60 Level FlightAware
13:23 46.9280 -119.8030 170° South 533 613 25,100  Climbing FlightAware
13:23 46.8470 -119.7530 157° South 535 616 25,000 -300 Descending FlightAware
13:24 46.7800 -119.7040 153° Southeast 530 610 24,800  Descending FlightAware
13:25 46.7210 -119.5750 124° Southeast 542 624 25,000 180 Climbing FlightAware
13:25 46.6840 -119.4670 117° Southeast 546 628 25,100 240 Climbing FlightAware
13:26 46.6460 -119.3590 117° Southeast 547 629 25,300 120 Climbing FlightAware
13:26 46.6070 -119.2470 117° Southeast 546 628 25,300 -120 Level FlightAware
13:27 46.5380 -119.0590 118° Southeast 548 631 25,200 -240 Descending FlightAware
13:28 46.4930 -118.9450 120° Southeast 544 626 25,000 -180 Descending FlightAware
13:29 46.4420 -118.8180 120° Southeast 538 619 25,000 420 Level FlightAware
13:29 46.4020 -118.7240 122° Southeast 551 634 25,500 240 Climbing FlightAware
13:30 46.3590 -118.6260 122° Southeast 550 633 25,300 -420 Descending FlightAware
13:30 46.3150 -118.5280 123° Southeast 549 632 25,100 -300 Descending FlightAware
13:31 46.2430 -118.3520 121° Southeast 542 624 24,900 -180 Descending FlightAware
13:32 46.1950 -118.2160 117° Southeast 526 605 24,800 -60 Descending FlightAware
13:33 46.1240 -118.0100 116° Southeast 542 624 24,800  Level FlightAware
13:33 46.1100 -117.9700 117° Southeast 542 624 24,800  Level FlightAware
13:34 46.0480 -117.7870 116° Southeast 541 623 24,800 60 Level FlightAware
13:35 46.0110 -117.6790 116° Southeast 542 624 24,900 120 Climbing FlightAware
13:35 45.9720 -117.5610 115° Southeast 544 626 25,000 60 Climbing FlightAware
13:36 45.9370 -117.4570 116° Southeast 544 626 25,000  Level FlightAware
13:36 45.9110 -117.3770 115° Southeast 544 626 25,000  Level FlightAware
13:37 45.8460 -117.1760 115° Southeast 544 626 25,000  Level FlightAware
13:38 45.8150 -117.0820 115° Southeast 544 626 25,000  Level FlightAware
13:39 45.7810 -116.9760 115° Southeast 544 626 25,000  Level FlightAware
13:39 45.7590 -116.9090 115° Southeast 544 626 25,000  Level FlightAware
13:40 45.7250 -116.8060 115° Southeast 544 626 25,000  Level FlightAware
13:43 46.2150 -117.9010 303° West 482 555 25,000  Level FlightAware
13:44 46.2660 -118.0930 291° West 421 484 25,000 -60 Level FlightAware
13:45 46.2940 -118.1950 292° West 402 463 24,900 -120 Descending FlightAware
13:46 46.3220 -118.3020 291° West 402 463 24,900  Level FlightAware
13:46 46.3430 -118.3810 291° West 402 463 24,900 -7,440 Level FlightAware
13:47 46.3830 -118.4940 297° West 352 405 15,300 -9,300 Descending FlightAware
13:48 46.4160 -118.5780 300° West 348 400 11,800 -2,220 Descending FlightAware
13:49 46.4500 -118.6670 299° West 348 400 11,800  Level FlightAware
13:49 46.4830 -118.7520 299° West 348 400 11,800  Level FlightAware
13:50 46.4910 -118.7730 299° West 348 400 11,800 -780 Level FlightAware
13:52 46.6210 -119.1000 300° West 377 434 9,900 -720 Descending FlightAware
13:52 46.6390 -119.1450 300° West 377 434 9,900  Level FlightAware
13:53 46.6570 -119.1890 301° West 377 434 9,900  Level FlightAware
13:53 46.6750 -119.2360 299° West 377 434 9,900  Level FlightAware
13:55 46.7706 -119.4406 299° West 376 433 9,900  Level Seattle Center
13:56 46.8400 -119.5547 312° West 376 433 9,900 -60 Level Seattle Center
13:57 46.9158 -119.6517 319° Northwest 364 419 9,800  Descending Seattle Center
13:58 46.9406 -119.5436 71° East 397 457 10,000 120 Climbing Seattle Center
13:59 46.8536 -119.3892 129° Southeast 410 472 10,100  Climbing Seattle Center
14:00 46.7789 -119.2669 132° Southeast 407 468 10,100  Level Seattle Center
14:01 46.7008 -119.1506 134° Southeast 405 466 10,200  Climbing Seattle Center
14:02 46.6186 -119.0403 137° Southeast 404 465 10,100 -60 Descending Seattle Center
14:03 46.5506 -118.9106 127° Southeast 406 467 10,100 -60 Level Seattle Center
14:04 46.4881 -118.7764 124° Southeast 403 464 10,000 -60 Descending Seattle Center
14:05 46.4261 -118.6411 124° Southeast 404 465 10,000  Level Seattle Center
14:06 46.3653 -118.5044 123° Southeast 406 467 10,100  Climbing Seattle Center
14:07 46.3103 -118.3636 119° Southeast 405 466 10,100 -60 Level Seattle Center
14:08 46.2597 -118.2178 117° Southeast 407 468 10,000  Descending Seattle Center
14:09 46.2106 -118.0736 116° Southeast 403 464 10,200  Climbing Seattle Center
14:10 46.1517 -117.9006 116° Southeast 405 466 10,000 -240 Descending Seattle Center
14:11 46.2289 -117.8492 25° Northeast 389 448 9,800 -180 Descending Seattle Center
14:12 46.3128 -117.9375 324° Northwest 381 438 9,700  Descending Seattle Center
14:13 46.3842 -118.0544 312° West 390 449 9,900  Climbing Seattle Center
14:14 46.4414 -118.1942 301° West 401 461 9,800  Descending Seattle Center
14:15 46.4972 -118.3350 300° West 403 464 9,900  Climbing Seattle Center
14:16 46.5514 -118.4772 299° West 404 465 9,900  Level Seattle Center
14:17 46.6078 -118.6192 300° West 404 465 10,000 60 Climbing Seattle Center
14:18 46.6631 -118.7628 299° West 409 471 10,100 60 Climbing Seattle Center
14:19 46.7139 -118.9097 297° West 409 471 10,200  Climbing Seattle Center
14:20 46.7683 -119.0817 295° West 406 467 10,100 -120 Descending Seattle Center
14:21 46.8067 -119.2111 293° West 407 468 10,000 -120 Descending Seattle Center
14:22 46.8572 -119.3497 298° West 386 444 9,900  Descending Seattle Center
14:23 46.9458 -119.3028 20° North 389 448 10,000  Climbing Seattle Center
14:24 46.8625 -119.1889 137° Southeast 423 487 10,000  Level Seattle Center
14:25 46.7644 -119.0875 145° Southeast 431 496 10,100  Climbing Seattle Center
14:26 46.6669 -118.9894 145° Southeast 431 496 10,100  Level Seattle Center
14:27 46.5569 -118.8867 147° Southeast 434 499 10,100 -60 Level Seattle Center
14:28 46.4797 -118.7756 135° Southeast 431 496 10,000 -60 Descending Seattle Center
14:29 46.4181 -118.6283 121° Southeast 430 495 10,000 -60 Level Seattle Center
14:30 46.3603 -118.4772 119° Southeast 431 496 9,900 -60 Descending Seattle Center
14:31 46.3081 -118.3200 116° Southeast 435 501 9,900  Level Seattle Center
14:32 46.2611 -118.1622 113° Southeast 431 496 9,900  Level Seattle Center
14:33 46.1606 -118.1225 165° South 422 486 9,900  Level Seattle Center
14:39 46.4780 -118.8800 165° South 405 466 9,900  Level FlightAware
14:40 46.5290 -118.9880 304° West 405 466 9,900 60 Level FlightAware
14:40 46.5690 -119.0710 305° West 405 466 10,000 180 Climbing FlightAware
14:41 46.6050 -119.1440 306° West 405 466 10,100 60 Climbing FlightAware
14:41 46.6380 -119.2150 304° West 405 466 10,100 240 Level FlightAware
14:42 46.6970 -119.3380 305° West 388 447 10,500 180 Climbing FlightAware
14:43 46.7580 -119.4770 303° West 388 447 10,500  Level FlightAware
14:44 46.7890 -119.5460 303° West 388 447 10,500 -300 Level FlightAware
14:45 46.7028 -119.4142 303° West 247 284 10,000 -900 Descending Seattle Center
14:46 46.7567 -119.3717 28° Northeast 224 258 8,400 -1,680 Descending Seattle Center
14:47 46.8217 -119.3567 North 229 264 6,700 -1,620 Descending Seattle Center
14:48 46.8819 -119.3458 North 222 255 5,200 -1,620 Descending Seattle Center
14:49 46.9436 -119.3328 North 227 261 3,500 -1,140 Descending Seattle Center
14:51 47.0064 -119.3197 North 227 261 3,000 -420 Descending Seattle Center
14:52 47.0672 -119.3025 11° North 214 246 2,700 -300 Descending Seattle Center
14:53 47.1217 -119.2858 12° North 179 206 2,400 -480 Descending Seattle Center
14:54 47.1628 -119.2961 350° North 154 177 1,800 -660 Descending Seattle Center
14:55 47.2008 -119.3153 341° North 147 169 1,100 -300 Descending Seattle Center
14:56 47.2328 -119.3311 341° North 147 169 1,200 60 Climbing Seattle Center
14:58 47.2758 -119.7160 279° West  Level Estimated
15:05 47.4220 -121.1270 279° West  Level Estimated
15:06 47.4415 -121.3292 278° West  Level Estimated
15:07 47.4606 -121.5315 278° West  Level Estimated
15:08 47.4794 -121.7340 278° West  Level Estimated
15:09 47.4978 -121.9367 278° West  Level Estimated
15:10 47.5158 -122.1394 278° West  Level Estimated
15:11 47.5300 -122.3020 277° West  Level Estimated
15:12 47.5300 -122.3020 270° West  Level Estimated
15:13 47.5300 -122.3020 270° West  Level Estimated
15:14 47.5300 -122.3020 270° West  Level Estimated
15:15 47.5300 -122.3020 270° West  Level Estimated
15:16 47.5300 -122.3020 270° West  Level Estimated
15:17 47.5300 -122.3020 270° West  Level Estimated
15:18 47.5300 -122.3020 270° West  Level Estimated
15:19 47.5300 -122.3020 270° West  Level Estimated
15:20 47.5300 -122.3020 270° West  Level Estimated
15:21 47.5300 -122.3020 270° West  Level Estimated
15:22 47.5300 -122.3020 270° West  Level Estimated
15:23 47.5300 -122.3020 270° West  Level Estimated
15:24 47.5300 -122.3020 270° West  Level Estimated
15:25 47.5300 -122.3020 270° West  Level Estimated
15:26 47.5300 -122.3020 270° West  Level Estimated
15:27 47.5300 -122.3020 270° West  Level Estimated
15:28 47.5300 -122.3020 270° West  Level Estimated
15:29 47.5300 -122.3020 270° West  Level Estimated
15:30 47.5300 -122.3020 270° West  Level Estimated
15:31 47.5300 -122.3020 270° West  Level Estimated
15:32 47.5300 -122.3020 270° West  Level Estimated
15:33 47.5300 -122.3020 270° West  Level Estimated
15:34 47.5300 -122.3020 270° West  Level Estimated
15:35 47.5300 -122.3020 270° West  Level Estimated
15:36 47.5300 -122.3020 270° West  Level Estimated
15:37 47.5300 -122.3020 270° West  Level Estimated
15:38 47.5300 -122.3020 270° West  Level Estimated